createdAt,value
2023-02-11T00:00:51.499Z,18.65
2023-02-11T00:03:38.694Z,27.23
2023-02-11T00:06:25.534Z,23.65
2023-02-11T00:09:11.429Z,14.63
2023-02-11T00:11:56.921Z,23.10
2023-02-11T00:14:42.260Z,19.65
2023-02-11T00:17:27.843Z,27.05
2023-02-11T00:20:13.188Z,33.85
2023-02-11T00:22:58.889Z,96.95
2023-02-11T00:25:45.521Z,47.50
2023-02-11T00:28:31.114Z,36.47
2023-02-11T00:31:19.089Z,31.65
2023-02-11T00:34:04.573Z,34.70
2023-02-11T00:36:51.961Z,36.47
2023-02-11T00:39:38.121Z,26.40
2023-02-11T00:42:24.436Z,24.20
2023-02-11T00:45:09.970Z,26.95
2023-02-11T00:47:55.672Z,31.40
2023-02-11T00:50:40.941Z,36.00
2023-02-11T00:53:26.752Z,32.85
2023-02-11T00:56:12.504Z,31.50
2023-02-11T00:58:58.120Z,30.38
2023-02-11T01:01:44.137Z,22.65
2023-02-11T01:04:30.064Z,28.92
2023-02-11T01:07:15.380Z,30.25
2023-02-11T01:10:00.939Z,32.42
2023-02-11T01:12:48.454Z,27.67
2023-02-11T01:15:34.181Z,29.13
2023-02-11T01:18:20.091Z,25.40
2023-02-11T01:21:07.768Z,20.48
2023-02-11T01:23:53.177Z,27.50
2023-02-11T01:26:39.381Z,20.65
2023-02-11T01:29:24.989Z,26.75
2023-02-11T01:32:13.950Z,19.23
2023-02-11T01:34:59.808Z,25.80
2023-02-11T01:37:45.814Z,22.23
2023-02-11T01:40:31.497Z,22.40
2023-02-11T01:43:17.451Z,14.40
2023-02-11T01:46:23.401Z,21.20
2023-02-11T01:49:15.082Z,18.02
2023-02-11T01:52:07.109Z,17.38
2023-02-11T01:55:14.377Z,20.80
2023-02-11T01:58:05.053Z,14.82
2023-02-11T02:00:51.043Z,17.65
2023-02-11T02:03:40.998Z,17.45
2023-02-11T02:06:34.454Z,14.35
2023-02-11T02:09:28.109Z,13.15
2023-02-11T02:12:13.730Z,24.63
2023-02-11T02:15:37.055Z,18.42
2023-02-11T02:18:31.257Z,16.50
2023-02-11T02:21:48.331Z,17.42
2023-02-11T02:24:49.203Z,14.55
2023-02-11T02:27:55.838Z,14.52
2023-02-11T02:31:03.463Z,14.40
2023-02-11T02:34:06.662Z,13.40
2023-02-11T02:37:08.232Z,16.00
2023-02-11T02:39:53.827Z,12.93
2023-02-11T02:42:41.355Z,12.73
2023-02-11T02:45:27.206Z,18.92
2023-02-11T02:48:29.380Z,17.48
2023-02-11T02:51:53.523Z,17.70
2023-02-11T02:55:08.780Z,15.38
2023-02-11T02:58:23.812Z,16.67
2023-02-11T03:01:22.667Z,18.80
2023-02-11T03:04:22.801Z,13.48
2023-02-11T03:07:41.611Z,17.75
2023-02-11T03:10:34.329Z,14.02
2023-02-11T03:13:24.713Z,16.90
2023-02-11T03:16:15.129Z,14.50
2023-02-11T03:19:06.017Z,13.15
2023-02-11T03:21:53.516Z,15.20
2023-02-11T03:24:41.295Z,16.25
2023-02-11T03:27:36.184Z,13.60
2023-02-11T03:30:28.522Z,13.80
2023-02-11T03:33:52.676Z,13.43
2023-02-11T03:36:38.684Z,17.60
2023-02-11T03:39:30.094Z,14.35
2023-02-11T03:42:16.686Z,12.70
2023-02-11T03:45:09.606Z,13.05
2023-02-11T03:50:50.077Z,17.58
2023-02-11T03:53:38.253Z,15.88
2023-02-11T03:56:29.521Z,17.10
2023-02-11T03:59:14.865Z,14.65
2023-02-11T04:02:00.595Z,19.75
2023-02-11T04:04:47.116Z,14.90
2023-02-11T04:07:32.669Z,19.20
2023-02-11T04:10:18.737Z,17.17
2023-02-11T04:13:04.246Z,14.02
2023-02-11T04:15:49.633Z,15.52
2023-02-11T04:18:34.972Z,13.23
2023-02-11T04:21:20.479Z,16.50
2023-02-11T04:24:05.980Z,16.15
2023-02-11T04:26:51.630Z,16.92
2023-02-11T04:29:36.929Z,14.70
2023-02-11T04:32:22.418Z,14.23
2023-02-11T04:35:07.976Z,18.65
2023-02-11T04:37:54.270Z,14.05
2023-02-11T04:40:40.232Z,18.67
2023-02-11T04:43:25.686Z,14.90
2023-02-11T04:46:11.079Z,20.63
2023-02-11T04:48:57.205Z,16.60
2023-02-11T04:51:46.508Z,15.73
2023-02-11T04:54:33.487Z,14.38
2023-02-11T04:57:19.118Z,16.63
2023-02-11T05:00:05.996Z,15.70
2023-02-11T05:02:51.534Z,15.43
2023-02-11T05:05:41.364Z,16.15
2023-02-11T05:08:26.664Z,12.80
2023-02-11T05:11:20.823Z,17.58
2023-02-11T05:14:07.238Z,16.17
2023-02-11T05:16:52.682Z,14.32
2023-02-11T05:19:38.610Z,18.05
2023-02-11T05:22:24.032Z,16.75
2023-02-11T05:25:09.602Z,19.05
2023-02-11T05:27:55.094Z,16.90
2023-02-11T05:30:40.635Z,17.55
2023-02-11T05:33:25.992Z,16.55
2023-02-11T05:36:13.542Z,17.10
2023-02-11T05:38:59.020Z,23.02
2023-02-11T05:41:44.372Z,20.13
2023-02-11T05:44:29.862Z,24.50
2023-02-11T05:47:15.231Z,18.65
2023-02-11T05:50:00.845Z,14.60
2023-02-11T05:52:46.724Z,19.25
2023-02-11T05:55:32.479Z,20.98
2023-02-11T05:58:18.501Z,19.40
2023-02-11T06:01:03.732Z,20.92
2023-02-11T06:03:51.212Z,21.27
2023-02-11T06:06:36.876Z,19.88
2023-02-11T06:09:22.340Z,21.33
2023-02-11T06:12:07.890Z,21.60
2023-02-11T06:14:53.567Z,18.45
2023-02-11T06:17:38.866Z,19.48
2023-02-11T06:20:24.281Z,23.55
2023-02-11T06:23:10.243Z,23.23
2023-02-11T06:25:55.823Z,19.48
2023-02-11T06:28:42.112Z,22.00
2023-02-11T06:31:28.310Z,26.88
2023-02-11T06:34:14.026Z,29.90
2023-02-11T06:36:59.469Z,34.45
2023-02-11T06:39:45.409Z,28.05
2023-02-11T06:42:30.939Z,32.95
2023-02-11T06:45:16.518Z,33.17
2023-02-11T06:48:02.081Z,31.67
2023-02-11T06:50:47.740Z,34.85
2023-02-11T06:53:37.100Z,32.25
2023-02-11T06:56:24.478Z,46.35
2023-02-11T06:59:16.480Z,39.83
2023-02-11T07:02:03.660Z,45.80
2023-02-11T07:04:49.542Z,37.35
2023-02-11T07:07:35.755Z,28.58
2023-02-11T07:10:21.143Z,36.05
2023-02-11T07:13:06.667Z,33.03
2023-02-11T07:15:52.674Z,29.88
2023-02-11T07:18:38.819Z,29.02
2023-02-11T07:21:24.699Z,25.33
2023-02-11T07:24:11.338Z,23.73
2023-02-11T07:26:57.028Z,22.30
2023-02-11T07:29:43.520Z,24.40
2023-02-11T07:32:29.482Z,27.88
2023-02-11T07:35:15.991Z,30.25
2023-02-11T07:38:01.556Z,20.83
2023-02-11T07:40:47.060Z,21.58
2023-02-11T07:43:34.202Z,20.40
2023-02-11T07:46:23.313Z,25.10
2023-02-11T07:49:09.250Z,20.70
2023-02-11T07:51:55.097Z,25.30
2023-02-11T07:54:40.796Z,19.27
2023-02-11T07:57:26.020Z,17.23
2023-02-11T08:00:12.203Z,14.93
2023-02-11T08:02:58.204Z,21.17
2023-02-11T08:05:46.539Z,23.90
2023-02-11T08:08:38.452Z,22.30
2023-02-11T08:11:28.800Z,23.45
2023-02-11T08:14:14.822Z,20.73
2023-02-11T08:17:00.636Z,21.25
2023-02-11T08:19:46.034Z,23.30
2023-02-11T08:22:33.454Z,22.35
2023-02-11T08:25:20.575Z,25.70
2023-02-11T08:28:06.152Z,22.15
2023-02-11T08:30:51.705Z,25.52
2023-02-11T08:33:38.204Z,23.60
2023-02-11T08:36:29.538Z,23.83
2023-02-11T08:39:21.062Z,28.70
2023-02-11T08:42:06.544Z,24.30
2023-02-11T08:44:51.816Z,23.40
2023-02-11T08:47:42.080Z,24.50
2023-02-11T08:50:28.455Z,32.20
2023-02-11T08:53:14.200Z,28.67
2023-02-11T08:55:59.513Z,22.48
2023-02-11T08:58:49.224Z,26.13
2023-02-11T09:01:36.839Z,25.15
2023-02-11T09:04:36.399Z,20.95
2023-02-11T09:07:32.515Z,28.85
2023-02-11T09:10:18.931Z,22.17
2023-02-11T09:13:05.078Z,25.33
2023-02-11T09:15:50.928Z,27.10
2023-02-11T09:18:37.182Z,22.70
2023-02-11T09:21:25.398Z,24.88
2023-02-11T09:24:12.142Z,22.73
2023-02-11T09:26:58.095Z,22.92
2023-02-11T09:29:50.058Z,27.10
2023-02-11T09:32:39.519Z,28.25
2023-02-11T09:35:25.405Z,25.40
2023-02-11T09:38:11.503Z,20.85
2023-02-11T09:40:57.082Z,24.02
2023-02-11T09:43:48.239Z,27.05
2023-02-11T09:46:41.821Z,27.65
2023-02-11T09:49:50.527Z,29.13
2023-02-11T09:52:57.516Z,25.83
2023-02-11T09:55:46.717Z,26.38
2023-02-11T09:58:38.624Z,29.63
2023-02-11T10:01:45.404Z,28.45
2023-02-11T10:04:51.194Z,26.75
2023-02-11T10:07:43.529Z,32.90
2023-02-11T10:10:41.873Z,28.17
2023-02-11T10:13:42.646Z,22.55
2023-02-11T10:16:37.647Z,25.90
2023-02-11T10:19:41.231Z,24.50
2023-02-11T10:22:37.806Z,27.23
2023-02-11T10:25:29.786Z,27.52
2023-02-11T10:28:21.247Z,22.83
2023-02-11T10:31:11.852Z,26.73
2023-02-11T10:34:10.291Z,36.22
2023-02-11T10:36:55.966Z,26.00
2023-02-11T10:39:41.718Z,35.78
2023-02-11T10:42:27.955Z,30.73
2023-02-11T10:45:30.544Z,39.65
2023-02-11T10:48:55.129Z,29.83
2023-02-11T10:51:40.907Z,28.23
2023-02-11T10:54:26.612Z,26.92
2023-02-11T10:57:20.072Z,24.10
2023-02-11T11:00:22.891Z,35.38
2023-02-11T11:03:21.202Z,27.13
2023-02-11T11:06:09.992Z,23.25
2023-02-11T11:08:55.995Z,23.80
2023-02-11T11:11:53.630Z,24.85
2023-02-11T11:14:39.307Z,20.42
2023-02-11T11:17:30.528Z,19.20
2023-02-11T11:20:22.811Z,18.50
2023-02-11T11:23:20.247Z,35.90
2023-02-11T11:26:13.089Z,40.55
2023-02-11T11:29:07.641Z,24.40
2023-02-11T11:32:20.537Z,24.52
2023-02-11T11:35:27.317Z,21.42
2023-02-11T11:38:15.021Z,21.77
2023-02-11T11:41:18.424Z,24.33
2023-02-11T11:44:26.939Z,21.92
2023-02-11T11:47:12.581Z,21.45
2023-02-11T11:50:23.107Z,19.40
2023-02-11T11:53:45.945Z,22.00
2023-02-11T11:56:53.817Z,17.83
2023-02-11T11:59:39.766Z,18.63
2023-02-11T12:03:02.705Z,18.25
2023-02-11T12:06:11.185Z,19.85
2023-02-11T12:09:15.246Z,19.60
2023-02-11T12:12:32.147Z,19.05
2023-02-11T12:15:39.468Z,19.20
2023-02-11T12:18:46.188Z,29.02
2023-02-11T12:21:54.189Z,16.88
2023-02-11T12:25:07.803Z,22.30
2023-02-11T12:28:20.116Z,18.98
2023-02-11T12:31:37.413Z,21.25
2023-02-11T12:34:47.722Z,15.75
2023-02-11T12:37:42.680Z,17.17
2023-02-11T12:40:57.402Z,14.90
2023-02-11T12:43:44.576Z,23.50
2023-02-11T12:46:50.271Z,26.30
2023-02-11T12:50:22.951Z,20.27
2023-02-11T12:53:14.649Z,17.08
2023-02-11T12:56:21.537Z,19.65
2023-02-11T12:59:17.156Z,17.85
2023-02-11T13:02:12.566Z,18.70
2023-02-11T13:05:08.398Z,17.98
2023-02-11T13:08:14.913Z,15.82
2023-02-11T13:11:14.414Z,15.10
2023-02-11T13:14:24.554Z,18.05
2023-02-11T13:17:24.357Z,16.02
2023-02-11T13:20:25.648Z,21.13
2023-02-11T13:23:16.972Z,18.07
2023-02-11T13:26:09.835Z,14.87
2023-02-11T13:29:05.420Z,18.23
2023-02-11T13:32:07.460Z,17.35
2023-02-11T13:34:53.206Z,15.48
2023-02-11T13:37:40.009Z,17.42
2023-02-11T13:40:35.980Z,19.63
2023-02-11T13:43:25.301Z,16.42
2023-02-11T13:46:13.675Z,18.73
2023-02-11T13:48:59.594Z,23.23
2023-02-11T13:51:46.743Z,19.27
2023-02-11T13:54:39.213Z,19.23
2023-02-11T13:57:37.417Z,17.92
2023-02-11T14:00:36.524Z,14.48
2023-02-11T14:03:52.552Z,18.90
2023-02-11T14:07:08.114Z,16.95
2023-02-11T14:09:57.348Z,16.00
2023-02-11T14:13:06.606Z,20.50
2023-02-11T14:16:31.549Z,14.90
2023-02-11T14:19:38.780Z,17.42
2023-02-11T14:22:31.723Z,20.08
2023-02-11T14:25:25.460Z,19.50
2023-02-11T14:28:24.331Z,19.15
2023-02-11T14:31:18.432Z,15.23
2023-02-11T14:34:19.017Z,20.20
2023-02-11T14:37:14.229Z,20.95
2023-02-11T14:40:18.637Z,28.45
2023-02-11T14:43:18.721Z,20.17
2023-02-11T14:46:05.491Z,19.00
2023-02-11T14:48:55.214Z,19.60
2023-02-11T14:51:41.388Z,21.02
2023-02-11T14:54:28.932Z,21.83
2023-02-11T14:57:19.632Z,18.08
2023-02-11T15:00:18.170Z,17.02
2023-02-11T15:03:04.177Z,21.75
2023-02-11T15:05:58.976Z,18.98
2023-02-11T15:08:52.707Z,16.70
2023-02-11T15:11:41.192Z,17.15
2023-02-11T15:14:30.506Z,16.50
2023-02-11T15:17:21.195Z,18.00
2023-02-11T15:20:08.036Z,17.45
2023-02-11T15:23:00.481Z,18.63
2023-02-11T15:25:51.568Z,18.67
2023-02-11T15:28:37.075Z,15.32
2023-02-11T15:31:25.441Z,24.08
2023-02-11T15:34:12.161Z,18.60
2023-02-11T15:36:58.301Z,19.58
2023-02-11T15:39:44.133Z,14.55
2023-02-11T15:42:43.865Z,21.92
2023-02-11T15:45:36.360Z,19.80
2023-02-11T15:48:26.771Z,20.90
2023-02-11T15:51:23.280Z,16.25
2023-02-11T15:54:16.778Z,24.17
2023-02-11T15:57:07.452Z,25.83
2023-02-11T15:59:54.876Z,21.38
2023-02-11T16:02:45.596Z,17.77
2023-02-11T16:05:32.929Z,18.30
2023-02-11T16:08:29.940Z,20.30
2023-02-11T16:11:27.001Z,22.65
2023-02-11T16:14:29.648Z,21.58
2023-02-11T16:17:18.746Z,17.80
2023-02-11T16:20:04.867Z,20.85
2023-02-11T16:22:50.832Z,21.05
2023-02-11T16:25:37.434Z,14.82
2023-02-11T16:28:22.881Z,19.73
2023-02-11T16:31:09.996Z,19.10
2023-02-11T16:33:55.497Z,12.65
2023-02-11T16:36:41.227Z,15.60
2023-02-11T16:39:30.853Z,15.50
2023-02-11T16:42:20.472Z,16.38
2023-02-11T16:45:06.936Z,18.10
2023-02-11T16:47:52.474Z,22.20
2023-02-11T16:50:38.210Z,18.08
2023-02-11T16:53:25.326Z,23.90
2023-02-11T16:56:16.896Z,22.27
2023-02-11T16:59:02.761Z,14.90
2023-02-11T17:01:49.769Z,19.38
2023-02-11T17:04:35.765Z,18.73
2023-02-11T17:07:21.823Z,17.52
2023-02-11T17:10:23.987Z,19.23
2023-02-11T17:13:09.407Z,19.55
2023-02-11T17:15:56.105Z,18.67
2023-02-11T17:18:42.766Z,19.25
2023-02-11T17:21:32.498Z,14.75
2023-02-11T17:24:21.956Z,20.38
2023-02-11T17:27:12.147Z,20.25
2023-02-11T17:30:02.254Z,23.48
2023-02-11T17:32:50.957Z,32.42
2023-02-11T17:35:41.518Z,22.77
2023-02-11T17:38:28.892Z,27.17
2023-02-11T17:41:17.131Z,22.33
2023-02-11T17:44:05.873Z,30.60
2023-02-11T17:46:53.528Z,24.27
2023-02-11T17:49:43.090Z,21.55
2023-02-11T17:52:31.862Z,22.10
2023-02-11T17:55:21.505Z,19.98
2023-02-11T17:58:11.651Z,25.13
2023-02-11T18:01:01.584Z,21.80
2023-02-11T18:03:51.083Z,25.58
2023-02-11T18:06:41.582Z,25.40
2023-02-11T18:09:35.083Z,15.00
2023-02-11T18:12:27.335Z,13.90
2023-02-11T18:15:21.406Z,22.73
2023-02-11T18:18:12.345Z,18.92
2023-02-11T18:21:10.332Z,15.73
2023-02-11T18:26:58.421Z,11.40
2023-02-11T18:29:51.947Z,17.88
2023-02-11T18:32:42.468Z,21.63
2023-02-11T18:35:33.146Z,16.88
2023-02-11T18:38:24.412Z,21.15
2023-02-11T18:45:38.592Z,24.52
2023-02-11T18:48:33.617Z,17.92
2023-02-11T18:51:21.541Z,25.52
2023-02-11T18:54:09.888Z,24.67
2023-02-11T18:56:56.043Z,22.42
2023-02-11T18:59:43.573Z,25.27
2023-02-11T19:02:31.081Z,19.33
2023-02-11T19:05:18.944Z,21.33
2023-02-11T19:08:07.715Z,19.88
2023-02-11T19:10:54.100Z,22.27
2023-02-11T19:13:41.348Z,21.00
2023-02-11T19:16:30.378Z,18.20
2023-02-11T19:19:18.544Z,19.70
2023-02-11T19:22:10.254Z,20.40
2023-02-11T19:24:56.630Z,26.98
2023-02-11T19:27:43.922Z,28.88
2023-02-11T19:30:31.058Z,24.33
2023-02-11T19:33:17.555Z,27.30
2023-02-11T19:36:08.471Z,27.90
2023-02-11T19:38:55.231Z,26.85
2023-02-11T19:41:41.969Z,30.63
2023-02-11T19:44:28.543Z,17.05
2023-02-11T19:47:14.811Z,26.17
2023-02-11T19:50:01.044Z,18.33
2023-02-11T19:52:48.719Z,26.90
2023-02-11T19:55:35.169Z,25.02
2023-02-11T19:58:22.048Z,19.33
2023-02-11T20:01:09.960Z,26.35
2023-02-11T20:03:56.778Z,19.92
2023-02-11T20:06:43.129Z,18.00
2023-02-11T20:09:31.288Z,18.42
2023-02-11T20:12:17.006Z,19.52
2023-02-11T20:15:03.019Z,23.13
2023-02-11T20:17:48.926Z,20.25
2023-02-11T20:20:34.281Z,19.20
2023-02-11T20:23:20.759Z,20.70
2023-02-11T20:26:08.112Z,21.38
2023-02-11T20:28:55.633Z,27.52
2023-02-11T20:31:42.025Z,18.95
2023-02-11T20:34:27.668Z,22.33
2023-02-11T20:37:13.237Z,18.23
2023-02-11T20:39:58.877Z,18.77
2023-02-11T20:42:44.411Z,20.33
2023-02-11T20:45:29.809Z,23.05
2023-02-11T20:48:15.417Z,21.23
2023-02-11T20:51:10.783Z,19.25
2023-02-11T20:53:56.974Z,20.77
2023-02-11T20:56:44.990Z,18.50
2023-02-11T20:59:31.994Z,19.67
2023-02-11T21:02:18.279Z,31.35
2023-02-11T21:05:04.009Z,20.15
2023-02-11T21:07:50.827Z,28.20
2023-02-11T21:10:38.184Z,24.40
2023-02-11T21:13:35.021Z,32.08
2023-02-11T21:16:36.117Z,24.05
2023-02-11T21:19:35.323Z,28.65
2023-02-11T21:22:30.993Z,26.23
2023-02-11T21:25:23.476Z,27.65
2023-02-11T21:28:09.733Z,28.83
2023-02-11T21:30:57.353Z,20.05
2023-02-11T21:33:59.409Z,27.88
2023-02-11T21:36:45.840Z,28.25
2023-02-11T21:39:31.110Z,28.65
2023-02-11T21:42:19.774Z,31.25
2023-02-11T21:45:14.231Z,26.65
2023-02-11T21:48:17.200Z,26.27
2023-02-11T21:54:07.251Z,41.03
2023-02-11T21:57:11.777Z,45.13
2023-02-11T22:00:18.056Z,33.25
2023-02-11T22:03:11.076Z,36.92
2023-02-11T22:06:00.687Z,33.55
2023-02-11T22:08:51.780Z,37.63
2023-02-11T22:11:41.538Z,35.47
2023-02-11T22:14:32.370Z,32.95
2023-02-11T22:17:40.357Z,31.95
2023-02-11T22:20:29.247Z,30.05
2023-02-11T22:23:20.691Z,32.42
2023-02-11T22:26:21.052Z,44.20
2023-02-11T22:29:16.889Z,42.30
2023-02-11T22:32:02.749Z,45.00
2023-02-11T22:34:48.448Z,35.65
2023-02-11T22:37:34.181Z,39.33
2023-02-11T22:40:19.994Z,42.25
2023-02-11T22:43:05.448Z,38.45
2023-02-11T22:45:52.221Z,35.65
2023-02-11T22:48:37.502Z,44.97
2023-02-11T22:51:25.444Z,33.53
2023-02-11T22:54:14.956Z,34.83
2023-02-11T22:57:00.389Z,35.35
2023-02-11T22:59:45.889Z,41.42
2023-02-11T23:02:31.687Z,35.25
2023-02-11T23:05:17.480Z,27.73
2023-02-11T23:08:03.707Z,31.92
2023-02-11T23:10:49.471Z,30.42
2023-02-11T23:13:37.687Z,34.58
2023-02-11T23:16:26.306Z,31.77
2023-02-11T23:19:12.511Z,29.45
2023-02-11T23:21:58.343Z,32.30
2023-02-11T23:24:43.725Z,30.15
2023-02-11T23:27:33.388Z,24.95
2023-02-11T23:30:22.832Z,23.83
2023-02-11T23:33:09.234Z,27.02
2023-02-11T23:35:55.534Z,28.40
2023-02-11T23:38:41.564Z,31.08
2023-02-11T23:41:27.505Z,29.58
2023-02-11T23:44:13.276Z,23.70
2023-02-11T23:46:58.964Z,30.40
2023-02-11T23:49:44.573Z,28.38
2023-02-11T23:52:29.777Z,28.30
2023-02-11T23:55:15.146Z,25.92
2023-02-11T23:58:00.717Z,29.05
